sensor_id;sensor_type;location;lat;lon;timestamp;temperature;humidity
57857;DHT22;43683;48.650;9.290;2022-07-23T00:00:45;21.40;66.60
57857;DHT22;43683;48.650;9.290;2022-07-23T00:03:12;21.60;66.10
57857;DHT22;43683;48.650;9.290;2022-07-23T00:05:37;21.70;65.80
57857;DHT22;43683;48.650;9.290;2022-07-23T00:08:03;21.70;65.60
57857;DHT22;43683;48.650;9.290;2022-07-23T00:10:29;21.80;64.90
57857;DHT22;43683;48.650;9.290;2022-07-23T00:12:54;21.90;64.60
57857;DHT22;43683;48.650;9.290;2022-07-23T00:15:20;21.90;64.70
57857;DHT22;43683;48.650;9.290;2022-07-23T00:17:45;21.80;64.80
57857;DHT22;43683;48.650;9.290;2022-07-23T00:20:11;21.80;64.80
57857;DHT22;43683;48.650;9.290;2022-07-23T00:22:36;21.80;65.00
57857;DHT22;43683;48.650;9.290;2022-07-23T00:25:10;21.80;65.10
57857;DHT22;43683;48.650;9.290;2022-07-23T00:27:35;21.70;65.10
57857;DHT22;43683;48.650;9.290;2022-07-23T00:30:01;21.70;65.30
57857;DHT22;43683;48.650;9.290;2022-07-23T00:32:26;21.60;65.40
57857;DHT22;43683;48.650;9.290;2022-07-23T00:34:52;21.50;65.60
57857;DHT22;43683;48.650;9.290;2022-07-23T00:37:17;21.50;65.60
57857;DHT22;43683;48.650;9.290;2022-07-23T00:39:43;21.50;65.80
57857;DHT22;43683;48.650;9.290;2022-07-23T00:42:08;21.50;65.70
57857;DHT22;43683;48.650;9.290;2022-07-23T00:44:34;21.60;65.50
57857;DHT22;43683;48.650;9.290;2022-07-23T00:46:59;21.50;66.00
57857;DHT22;43683;48.650;9.290;2022-07-23T00:49:29;21.20;67.20
57857;DHT22;43683;48.650;9.290;2022-07-23T00:51:56;21.00;67.90
57857;DHT22;43683;48.650;9.290;2022-07-23T00:54:25;21.00;67.40
57857;DHT22;43683;48.650;9.290;2022-07-23T00:56:51;21.00;67.20
57857;DHT22;43683;48.650;9.290;2022-07-23T00:59:16;21.00;66.90
57857;DHT22;43683;48.650;9.290;2022-07-23T01:01:42;21.00;66.60
57857;DHT22;43683;48.650;9.290;2022-07-23T01:04:09;21.00;66.40
57857;DHT22;43683;48.650;9.290;2022-07-23T01:06:37;21.00;66.40
57857;DHT22;43683;48.650;9.290;2022-07-23T01:09:04;21.10;66.20
57857;DHT22;43683;48.650;9.290;2022-07-23T01:11:32;21.10;66.00
57857;DHT22;43683;48.650;9.290;2022-07-23T01:13:58;21.20;65.90
57857;DHT22;43683;48.650;9.290;2022-07-23T01:16:23;21.20;65.80
57857;DHT22;43683;48.650;9.290;2022-07-23T01:18:49;21.10;65.70
57857;DHT22;43683;48.650;9.290;2022-07-23T01:21:18;21.10;65.90
57857;DHT22;43683;48.650;9.290;2022-07-23T01:23:44;21.10;66.00
57857;DHT22;43683;48.650;9.290;2022-07-23T01:26:09;21.10;65.90
57857;DHT22;43683;48.650;9.290;2022-07-23T01:28:35;21.10;65.90
57857;DHT22;43683;48.650;9.290;2022-07-23T01:31:00;21.10;65.50
57857;DHT22;43683;48.650;9.290;2022-07-23T01:33:26;21.20;65.30
57857;DHT22;43683;48.650;9.290;2022-07-23T01:35:51;21.20;65.10
57857;DHT22;43683;48.650;9.290;2022-07-23T01:38:17;21.20;65.20
57857;DHT22;43683;48.650;9.290;2022-07-23T01:40:42;21.20;65.20
57857;DHT22;43683;48.650;9.290;2022-07-23T01:43:08;21.20;65.00
57857;DHT22;43683;48.650;9.290;2022-07-23T01:45:33;21.20;65.30
57857;DHT22;43683;48.650;9.290;2022-07-23T01:47:59;21.20;65.40
57857;DHT22;43683;48.650;9.290;2022-07-23T01:50:24;21.20;65.50
57857;DHT22;43683;48.650;9.290;2022-07-23T01:52:50;21.10;65.60
57857;DHT22;43683;48.650;9.290;2022-07-23T01:55:15;20.90;66.30
57857;DHT22;43683;48.650;9.290;2022-07-23T01:57:41;20.90;66.60
57857;DHT22;43683;48.650;9.290;2022-07-23T02:00:07;20.90;66.80
57857;DHT22;43683;48.650;9.290;2022-07-23T02:02:33;20.80;66.90
57857;DHT22;43683;48.650;9.290;2022-07-23T02:04:58;20.70;67.00
57857;DHT22;43683;48.650;9.290;2022-07-23T02:07:24;20.70;67.70
57857;DHT22;43683;48.650;9.290;2022-07-23T02:09:49;20.50;68.00
57857;DHT22;43683;48.650;9.290;2022-07-23T02:12:15;20.50;68.20
57857;DHT22;43683;48.650;9.290;2022-07-23T02:14:40;20.50;68.40
57857;DHT22;43683;48.650;9.290;2022-07-23T02:17:06;20.40;68.60
57857;DHT22;43683;48.650;9.290;2022-07-23T02:19:31;20.40;68.70
57857;DHT22;43683;48.650;9.290;2022-07-23T02:21:57;20.40;69.00
57857;DHT22;43683;48.650;9.290;2022-07-23T02:24:22;20.30;69.10
57857;DHT22;43683;48.650;9.290;2022-07-23T02:26:48;20.30;68.80
57857;DHT22;43683;48.650;9.290;2022-07-23T02:29:13;20.40;68.50
57857;DHT22;43683;48.650;9.290;2022-07-23T02:31:39;20.50;68.40
57857;DHT22;43683;48.650;9.290;2022-07-23T02:34:05;20.50;68.30
57857;DHT22;43683;48.650;9.290;2022-07-23T02:36:30;20.50;68.40
57857;DHT22;43683;48.650;9.290;2022-07-23T02:38:56;20.50;68.60
57857;DHT22;43683;48.650;9.290;2022-07-23T02:41:22;20.50;68.40
57857;DHT22;43683;48.650;9.290;2022-07-23T02:43:47;20.50;68.50
57857;DHT22;43683;48.650;9.290;2022-07-23T02:46:13;20.50;68.80
57857;DHT22;43683;48.650;9.290;2022-07-23T02:48:38;20.50;68.80
57857;DHT22;43683;48.650;9.290;2022-07-23T02:51:04;20.50;68.80
57857;DHT22;43683;48.650;9.290;2022-07-23T02:53:29;20.50;68.70
57857;DHT22;43683;48.650;9.290;2022-07-23T02:55:55;20.50;68.70
57857;DHT22;43683;48.650;9.290;2022-07-23T02:58:20;20.50;68.70
57857;DHT22;43683;48.650;9.290;2022-07-23T03:00:46;20.50;68.90
57857;DHT22;43683;48.650;9.290;2022-07-23T03:03:12;20.40;69.30
57857;DHT22;43683;48.650;9.290;2022-07-23T03:05:38;20.30;69.80
57857;DHT22;43683;48.650;9.290;2022-07-23T03:08:04;20.20;70.00
57857;DHT22;43683;48.650;9.290;2022-07-23T03:10:29;20.20;70.20
57857;DHT22;43683;48.650;9.290;2022-07-23T03:12:55;20.10;70.40
57857;DHT22;43683;48.650;9.290;2022-07-23T03:15:20;20.10;70.60
57857;DHT22;43683;48.650;9.290;2022-07-23T03:17:46;20.10;70.80
57857;DHT22;43683;48.650;9.290;2022-07-23T03:20:11;20.10;70.90
57857;DHT22;43683;48.650;9.290;2022-07-23T03:22:37;20.00;71.00
57857;DHT22;43683;48.650;9.290;2022-07-23T03:25:02;20.00;71.40
57857;DHT22;43683;48.650;9.290;2022-07-23T03:27:29;19.90;71.80
57857;DHT22;43683;48.650;9.290;2022-07-23T03:29:57;19.70;72.30
57857;DHT22;43683;48.650;9.290;2022-07-23T03:32:23;19.70;72.80
57857;DHT22;43683;48.650;9.290;2022-07-23T03:34:49;19.60;73.00
57857;DHT22;43683;48.650;9.290;2022-07-23T03:37:16;19.60;73.10
57857;DHT22;43683;48.650;9.290;2022-07-23T03:39:42;19.60;73.10
57857;DHT22;43683;48.650;9.290;2022-07-23T03:42:07;19.50;73.00
57857;DHT22;43683;48.650;9.290;2022-07-23T03:44:33;19.40;73.30
57857;DHT22;43683;48.650;9.290;2022-07-23T03:46:59;19.30;73.60
57857;DHT22;43683;48.650;9.290;2022-07-23T03:49:25;19.30;73.90
57857;DHT22;43683;48.650;9.290;2022-07-23T03:51:50;19.10;74.40
57857;DHT22;43683;48.650;9.290;2022-07-23T03:54:16;19.00;74.80
57857;DHT22;43683;48.650;9.290;2022-07-23T03:56:41;18.90;74.80
57857;DHT22;43683;48.650;9.290;2022-07-23T03:59:08;18.90;74.80
57857;DHT22;43683;48.650;9.290;2022-07-23T04:01:34;18.80;75.80
57857;DHT22;43683;48.650;9.290;2022-07-23T04:04:00;18.70;75.30
57857;DHT22;43683;48.650;9.290;2022-07-23T04:06:25;18.70;75.50
57857;DHT22;43683;48.650;9.290;2022-07-23T04:08:51;18.70;75.50
57857;DHT22;43683;48.650;9.290;2022-07-23T04:11:16;18.80;75.40
57857;DHT22;43683;48.650;9.290;2022-07-23T04:13:42;18.80;75.20
57857;DHT22;43683;48.650;9.290;2022-07-23T04:16:07;18.90;75.30
57857;DHT22;43683;48.650;9.290;2022-07-23T04:18:33;18.90;75.40
57857;DHT22;43683;48.650;9.290;2022-07-23T04:20:59;19.00;75.30
57857;DHT22;43683;48.650;9.290;2022-07-23T04:23:24;19.10;75.10
57857;DHT22;43683;48.650;9.290;2022-07-23T04:25:50;19.20;75.00
57857;DHT22;43683;48.650;9.290;2022-07-23T04:28:15;19.20;75.10
57857;DHT22;43683;48.650;9.290;2022-07-23T04:30:41;19.10;75.30
57857;DHT22;43683;48.650;9.290;2022-07-23T04:33:07;19.10;75.40
57857;DHT22;43683;48.650;9.290;2022-07-23T04:35:36;19.10;75.50
57857;DHT22;43683;48.650;9.290;2022-07-23T04:38:02;19.20;75.80
57857;DHT22;43683;48.650;9.290;2022-07-23T04:40:28;19.20;75.80
57857;DHT22;43683;48.650;9.290;2022-07-23T04:42:54;19.20;75.80
57857;DHT22;43683;48.650;9.290;2022-07-23T04:45:20;19.30;75.70
57857;DHT22;43683;48.650;9.290;2022-07-23T04:47:45;19.30;75.60
57857;DHT22;43683;48.650;9.290;2022-07-23T04:50:11;19.40;75.40
57857;DHT22;43683;48.650;9.290;2022-07-23T04:52:37;19.50;75.30
57857;DHT22;43683;48.650;9.290;2022-07-23T04:55:03;19.60;75.20
57857;DHT22;43683;48.650;9.290;2022-07-23T04:57:28;19.70;75.10
57857;DHT22;43683;48.650;9.290;2022-07-23T04:59:54;19.80;75.10
57857;DHT22;43683;48.650;9.290;2022-07-23T05:02:19;19.80;75.00
57857;DHT22;43683;48.650;9.290;2022-07-23T05:04:45;19.90;74.90
57857;DHT22;43683;48.650;9.290;2022-07-23T05:07:10;20.10;74.60
57857;DHT22;43683;48.650;9.290;2022-07-23T05:09:36;20.40;74.10
57857;DHT22;43683;48.650;9.290;2022-07-23T05:12:01;20.70;73.50
57857;DHT22;43683;48.650;9.290;2022-07-23T05:14:27;20.90;72.90
57857;DHT22;43683;48.650;9.290;2022-07-23T05:16:53;21.10;72.60
57857;DHT22;43683;48.650;9.290;2022-07-23T05:19:19;21.20;72.30
57857;DHT22;43683;48.650;9.290;2022-07-23T05:21:44;21.30;72.20
57857;DHT22;43683;48.650;9.290;2022-07-23T05:24:10;21.20;72.10
57857;DHT22;43683;48.650;9.290;2022-07-23T05:26:35;21.10;72.50
57857;DHT22;43683;48.650;9.290;2022-07-23T05:29:01;21.00;73.00
57857;DHT22;43683;48.650;9.290;2022-07-23T05:31:26;21.00;73.40
57857;DHT22;43683;48.650;9.290;2022-07-23T05:33:52;20.90;73.70
57857;DHT22;43683;48.650;9.290;2022-07-23T05:36:17;21.00;73.80
57857;DHT22;43683;48.650;9.290;2022-07-23T05:38:43;21.10;73.20
57857;DHT22;43683;48.650;9.290;2022-07-23T05:41:09;21.40;72.50
57857;DHT22;43683;48.650;9.290;2022-07-23T05:43:35;21.60;72.00
57857;DHT22;43683;48.650;9.290;2022-07-23T05:46:01;21.60;71.90
57857;DHT22;43683;48.650;9.290;2022-07-23T05:48:26;21.50;72.00
57857;DHT22;43683;48.650;9.290;2022-07-23T05:50:52;21.50;72.20
57857;DHT22;43683;48.650;9.290;2022-07-23T05:53:18;21.40;72.60
57857;DHT22;43683;48.650;9.290;2022-07-23T05:55:43;21.30;72.90
57857;DHT22;43683;48.650;9.290;2022-07-23T05:58:09;21.30;73.20
57857;DHT22;43683;48.650;9.290;2022-07-23T06:00:34;21.30;73.20
57857;DHT22;43683;48.650;9.290;2022-07-23T06:03:00;21.40;73.10
57857;DHT22;43683;48.650;9.290;2022-07-23T06:05:25;21.60;72.70
57857;DHT22;43683;48.650;9.290;2022-07-23T06:07:51;21.80;72.20
57857;DHT22;43683;48.650;9.290;2022-07-23T06:10:18;22.00;71.70
57857;DHT22;43683;48.650;9.290;2022-07-23T06:12:44;22.20;71.40
57857;DHT22;43683;48.650;9.290;2022-07-23T06:15:10;22.40;71.10
57857;DHT22;43683;48.650;9.290;2022-07-23T06:17:36;22.60;70.40
57857;DHT22;43683;48.650;9.290;2022-07-23T06:20:07;23.60;68.20
57857;DHT22;43683;48.650;9.290;2022-07-23T06:22:33;24.60;65.60
57857;DHT22;43683;48.650;9.290;2022-07-23T06:24:58;25.10;64.00
57857;DHT22;43683;48.650;9.290;2022-07-23T06:27:24;25.70;62.70
57857;DHT22;43683;48.650;9.290;2022-07-23T06:29:49;26.10;61.70
57857;DHT22;43683;48.650;9.290;2022-07-23T06:32:15;26.20;61.20
57857;DHT22;43683;48.650;9.290;2022-07-23T06:34:40;26.20;61.00
57857;DHT22;43683;48.650;9.290;2022-07-23T06:37:06;26.20;60.90
57857;DHT22;43683;48.650;9.290;2022-07-23T06:39:31;26.20;60.60
57857;DHT22;43683;48.650;9.290;2022-07-23T06:41:57;26.40;60.50
57857;DHT22;43683;48.650;9.290;2022-07-23T06:44:22;26.60;60.00
57857;DHT22;43683;48.650;9.290;2022-07-23T06:46:48;26.70;59.60
57857;DHT22;43683;48.650;9.290;2022-07-23T06:49:13;27.00;58.90
57857;DHT22;43683;48.650;9.290;2022-07-23T06:51:39;27.30;58.50
57857;DHT22;43683;48.650;9.290;2022-07-23T06:54:05;27.30;58.40
57857;DHT22;43683;48.650;9.290;2022-07-23T06:56:30;26.90;59.10
57857;DHT22;43683;48.650;9.290;2022-07-23T06:58:56;26.50;60.00
57857;DHT22;43683;48.650;9.290;2022-07-23T07:01:21;26.40;60.30
57857;DHT22;43683;48.650;9.290;2022-07-23T07:03:47;26.50;60.10
57857;DHT22;43683;48.650;9.290;2022-07-23T07:06:14;26.80;59.60
57857;DHT22;43683;48.650;9.290;2022-07-23T07:08:40;26.80;59.10
57857;DHT22;43683;48.650;9.290;2022-07-23T07:11:05;26.50;59.40
57857;DHT22;43683;48.650;9.290;2022-07-23T07:13:31;26.40;59.80
57857;DHT22;43683;48.650;9.290;2022-07-23T07:15:57;26.30;60.00
57857;DHT22;43683;48.650;9.290;2022-07-23T07:18:22;26.40;59.80
57857;DHT22;43683;48.650;9.290;2022-07-23T07:20:48;26.50;59.60
57857;DHT22;43683;48.650;9.290;2022-07-23T07:23:14;26.40;59.50
57857;DHT22;43683;48.650;9.290;2022-07-23T07:25:40;26.10;59.70
57857;DHT22;43683;48.650;9.290;2022-07-23T07:28:05;25.90;59.80
57857;DHT22;43683;48.650;9.290;2022-07-23T07:30:31;25.80;60.00
57857;DHT22;43683;48.650;9.290;2022-07-23T07:32:57;25.80;59.70
57857;DHT22;43683;48.650;9.290;2022-07-23T07:35:22;25.90;59.10
57857;DHT22;43683;48.650;9.290;2022-07-23T07:37:48;26.00;58.90
57857;DHT22;43683;48.650;9.290;2022-07-23T07:40:13;26.10;58.20
57857;DHT22;43683;48.650;9.290;2022-07-23T07:42:46;26.30;57.40
57857;DHT22;43683;48.650;9.290;2022-07-23T07:45:12;26.60;56.50
57857;DHT22;43683;48.650;9.290;2022-07-23T07:47:37;26.90;56.30
57857;DHT22;43683;48.650;9.290;2022-07-23T07:50:03;27.10;55.50
57857;DHT22;43683;48.650;9.290;2022-07-23T07:52:28;26.90;55.50
57857;DHT22;43683;48.650;9.290;2022-07-23T07:54:54;26.80;55.50
57857;DHT22;43683;48.650;9.290;2022-07-23T07:57:19;27.00;55.00
57857;DHT22;43683;48.650;9.290;2022-07-23T07:59:45;27.30;54.60
57857;DHT22;43683;48.650;9.290;2022-07-23T08:02:10;27.40;54.00
57857;DHT22;43683;48.650;9.290;2022-07-23T08:04:36;27.70;53.10
57857;DHT22;43683;48.650;9.290;2022-07-23T08:07:01;27.80;52.40
57857;DHT22;43683;48.650;9.290;2022-07-23T08:09:27;28.20;51.40
57857;DHT22;43683;48.650;9.290;2022-07-23T08:11:52;28.30;50.90
57857;DHT22;43683;48.650;9.290;2022-07-23T08:14:18;28.30;50.80
57857;DHT22;43683;48.650;9.290;2022-07-23T08:16:44;28.50;50.60
57857;DHT22;43683;48.650;9.290;2022-07-23T08:19:09;28.80;49.90
57857;DHT22;43683;48.650;9.290;2022-07-23T08:21:35;28.60;49.90
57857;DHT22;43683;48.650;9.290;2022-07-23T08:24:00;28.30;50.20
57857;DHT22;43683;48.650;9.290;2022-07-23T08:26:26;28.20;49.80
57857;DHT22;43683;48.650;9.290;2022-07-23T08:28:51;28.40;49.70
57857;DHT22;43683;48.650;9.290;2022-07-23T08:31:17;28.50;49.90
57857;DHT22;43683;48.650;9.290;2022-07-23T08:33:44;28.40;50.10
57857;DHT22;43683;48.650;9.290;2022-07-23T08:36:09;28.40;50.10
57857;DHT22;43683;48.650;9.290;2022-07-23T08:38:35;28.30;50.10
57857;DHT22;43683;48.650;9.290;2022-07-23T08:41:01;28.30;50.30
57857;DHT22;43683;48.650;9.290;2022-07-23T08:43:29;28.00;50.40
57857;DHT22;43683;48.650;9.290;2022-07-23T08:45:56;27.90;50.70
57857;DHT22;43683;48.650;9.290;2022-07-23T08:48:25;28.00;50.60
57857;DHT22;43683;48.650;9.290;2022-07-23T08:50:53;28.20;50.20
57857;DHT22;43683;48.650;9.290;2022-07-23T08:53:20;28.50;49.60
57857;DHT22;43683;48.650;9.290;2022-07-23T08:55:47;28.50;49.70
57857;DHT22;43683;48.650;9.290;2022-07-23T08:58:13;28.40;49.60
57857;DHT22;43683;48.650;9.290;2022-07-23T09:00:38;28.30;50.10
57857;DHT22;43683;48.650;9.290;2022-07-23T09:03:04;28.10;49.70
57857;DHT22;43683;48.650;9.290;2022-07-23T09:05:29;28.00;49.70
57857;DHT22;43683;48.650;9.290;2022-07-23T09:08:09;27.90;49.50
57857;DHT22;43683;48.650;9.290;2022-07-23T09:10:52;27.90;49.60
57857;DHT22;43683;48.650;9.290;2022-07-23T09:13:53;27.90;49.60
57857;DHT22;43683;48.650;9.290;2022-07-23T09:16:27;27.90;49.30
57857;DHT22;43683;48.650;9.290;2022-07-23T09:18:56;28.40;49.10
57857;DHT22;43683;48.650;9.290;2022-07-23T09:21:27;29.00;48.60
57857;DHT22;43683;48.650;9.290;2022-07-23T09:26:39;29.50;47.50
57857;DHT22;43683;48.650;9.290;2022-07-23T09:31:54;29.40;47.70
57857;DHT22;43683;48.650;9.290;2022-07-23T09:34:33;29.60;47.50
57857;DHT22;43683;48.650;9.290;2022-07-23T09:37:14;29.30;48.00
57857;DHT22;43683;48.650;9.290;2022-07-23T09:39:40;29.20;48.40
57857;DHT22;43683;48.650;9.290;2022-07-23T09:42:17;29.10;48.20
57857;DHT22;43683;48.650;9.290;2022-07-23T09:44:45;29.20;47.50
57857;DHT22;43683;48.650;9.290;2022-07-23T09:47:11;29.10;48.10
57857;DHT22;43683;48.650;9.290;2022-07-23T09:49:36;29.00;48.30
57857;DHT22;43683;48.650;9.290;2022-07-23T09:52:03;29.10;48.30
57857;DHT22;43683;48.650;9.290;2022-07-23T09:54:34;29.10;48.30
57857;DHT22;43683;48.650;9.290;2022-07-23T09:57:09;29.20;47.70
57857;DHT22;43683;48.650;9.290;2022-07-23T09:59:39;29.40;47.10
57857;DHT22;43683;48.650;9.290;2022-07-23T10:02:06;29.70;47.00
57857;DHT22;43683;48.650;9.290;2022-07-23T10:04:32;29.70;47.00
57857;DHT22;43683;48.650;9.290;2022-07-23T10:07:01;29.80;47.50
57857;DHT22;43683;48.650;9.290;2022-07-23T10:09:32;29.90;47.90
57857;DHT22;43683;48.650;9.290;2022-07-23T10:12:01;30.00;47.90
57857;DHT22;43683;48.650;9.290;2022-07-23T10:14:32;30.30;47.80
57857;DHT22;43683;48.650;9.290;2022-07-23T10:17:01;30.50;47.30
57857;DHT22;43683;48.650;9.290;2022-07-23T10:19:27;30.70;46.50
57857;DHT22;43683;48.650;9.290;2022-07-23T10:30:30;31.20;44.60
57857;DHT22;43683;48.650;9.290;2022-07-23T10:36:03;30.70;45.30
57857;DHT22;43683;48.650;9.290;2022-07-23T10:38:37;30.40;45.20
57857;DHT22;43683;48.650;9.290;2022-07-23T10:41:05;30.20;45.60
57857;DHT22;43683;48.650;9.290;2022-07-23T10:43:31;30.00;45.50
57857;DHT22;43683;48.650;9.290;2022-07-23T10:46:26;29.90;45.70
57857;DHT22;43683;48.650;9.290;2022-07-23T10:49:26;29.70;45.90
57857;DHT22;43683;48.650;9.290;2022-07-23T10:54:40;30.60;44.30
57857;DHT22;43683;48.650;9.290;2022-07-23T10:57:07;31.10;44.20
57857;DHT22;43683;48.650;9.290;2022-07-23T11:02:32;31.80;43.70
57857;DHT22;43683;48.650;9.290;2022-07-23T11:05:11;31.60;43.40
57857;DHT22;43683;48.650;9.290;2022-07-23T11:10:34;31.40;42.70
57857;DHT22;43683;48.650;9.290;2022-07-23T11:29:37;32.30;41.70
57857;DHT22;43683;48.650;9.290;2022-07-23T11:32:05;32.50;41.30
57857;DHT22;43683;48.650;9.290;2022-07-23T11:37:04;32.40;40.80
57857;DHT22;43683;48.650;9.290;2022-07-23T11:39:31;31.90;40.80
57857;DHT22;43683;48.650;9.290;2022-07-23T11:41:58;31.30;41.50
57857;DHT22;43683;48.650;9.290;2022-07-23T11:44:27;31.00;41.70
57857;DHT22;43683;48.650;9.290;2022-07-23T11:47:04;30.60;42.20
57857;DHT22;43683;48.650;9.290;2022-07-23T11:49:30;30.30;42.00
57857;DHT22;43683;48.650;9.290;2022-07-23T11:52:04;30.00;42.20
57857;DHT22;43683;48.650;9.290;2022-07-23T11:54:31;29.80;42.40
57857;DHT22;43683;48.650;9.290;2022-07-23T11:56:58;30.00;42.40
57857;DHT22;43683;48.650;9.290;2022-07-23T11:59:26;30.60;41.60
57857;DHT22;43683;48.650;9.290;2022-07-23T12:02:02;31.30;40.80
57857;DHT22;43683;48.650;9.290;2022-07-23T12:07:04;32.20;40.20
57857;DHT22;43683;48.650;9.290;2022-07-23T12:09:30;32.40;40.00
57857;DHT22;43683;48.650;9.290;2022-07-23T12:12:00;32.80;39.30
57857;DHT22;43683;48.650;9.290;2022-07-23T12:14:26;33.20;39.00
57857;DHT22;43683;48.650;9.290;2022-07-23T12:17:10;33.40;38.80
57857;DHT22;43683;48.650;9.290;2022-07-23T12:19:36;33.60;38.70
57857;DHT22;43683;48.650;9.290;2022-07-23T12:22:02;34.00;38.30
57857;DHT22;43683;48.650;9.290;2022-07-23T12:24:27;34.20;37.70
57857;DHT22;43683;48.650;9.290;2022-07-23T12:27:10;34.20;37.90
57857;DHT22;43683;48.650;9.290;2022-07-23T12:29:36;34.10;37.80
57857;DHT22;43683;48.650;9.290;2022-07-23T12:32:02;33.40;38.30
57857;DHT22;43683;48.650;9.290;2022-07-23T12:34:28;32.70;39.40
57857;DHT22;43683;48.650;9.290;2022-07-23T12:36:53;32.90;39.10
57857;DHT22;43683;48.650;9.290;2022-07-23T12:39:31;33.00;39.00
57857;DHT22;43683;48.650;9.290;2022-07-23T12:41:57;33.30;38.10
57857;DHT22;43683;48.650;9.290;2022-07-23T12:44:22;33.40;38.10
57857;DHT22;43683;48.650;9.290;2022-07-23T12:46:54;32.90;38.20
57857;DHT22;43683;48.650;9.290;2022-07-23T12:49:29;32.30;38.70
57857;DHT22;43683;48.650;9.290;2022-07-23T12:51:54;31.80;38.70
57857;DHT22;43683;48.650;9.290;2022-07-23T12:54:27;31.60;39.00
57857;DHT22;43683;48.650;9.290;2022-07-23T12:56:53;31.30;39.00
57857;DHT22;43683;48.650;9.290;2022-07-23T12:59:19;31.30;39.00
57857;DHT22;43683;48.650;9.290;2022-07-23T13:01:55;31.40;38.90
57857;DHT22;43683;48.650;9.290;2022-07-23T13:04:24;31.70;38.80
57857;DHT22;43683;48.650;9.290;2022-07-23T13:06:57;31.80;38.90
57857;DHT22;43683;48.650;9.290;2022-07-23T13:09:25;32.00;38.50
57857;DHT22;43683;48.650;9.290;2022-07-23T13:11:51;32.10;38.10
57857;DHT22;43683;48.650;9.290;2022-07-23T13:14:18;31.80;38.30
57857;DHT22;43683;48.650;9.290;2022-07-23T13:16:45;31.50;38.50
57857;DHT22;43683;48.650;9.290;2022-07-23T13:19:11;31.70;38.40
57857;DHT22;43683;48.650;9.290;2022-07-23T13:21:37;31.60;38.40
57857;DHT22;43683;48.650;9.290;2022-07-23T13:24:02;31.10;39.00
57857;DHT22;43683;48.650;9.290;2022-07-23T13:26:28;30.50;39.70
57857;DHT22;43683;48.650;9.290;2022-07-23T13:28:54;30.00;40.30
57857;DHT22;43683;48.650;9.290;2022-07-23T13:31:20;29.70;40.80
57857;DHT22;43683;48.650;9.290;2022-07-23T13:33:45;29.50;41.00
57857;DHT22;43683;48.650;9.290;2022-07-23T13:36:11;29.60;41.10
57857;DHT22;43683;48.650;9.290;2022-07-23T13:38:37;29.70;41.00
57857;DHT22;43683;48.650;9.290;2022-07-23T13:41:02;29.90;41.00
57857;DHT22;43683;48.650;9.290;2022-07-23T13:43:29;30.40;40.60
57857;DHT22;43683;48.650;9.290;2022-07-23T13:45:55;31.00;40.00
57857;DHT22;43683;48.650;9.290;2022-07-23T13:48:21;31.70;39.50
57857;DHT22;43683;48.650;9.290;2022-07-23T13:50:48;31.90;39.00
57857;DHT22;43683;48.650;9.290;2022-07-23T13:53:14;31.80;39.20
57857;DHT22;43683;48.650;9.290;2022-07-23T13:55:41;31.60;39.50
57857;DHT22;43683;48.650;9.290;2022-07-23T13:58:07;31.30;39.60
57857;DHT22;43683;48.650;9.290;2022-07-23T14:00:35;31.00;40.00
57857;DHT22;43683;48.650;9.290;2022-07-23T14:03:02;30.60;40.10
57857;DHT22;43683;48.650;9.290;2022-07-23T14:05:27;30.50;40.40
57857;DHT22;43683;48.650;9.290;2022-07-23T14:07:53;30.40;40.50
57857;DHT22;43683;48.650;9.290;2022-07-23T14:10:21;30.60;40.50
57857;DHT22;43683;48.650;9.290;2022-07-23T14:12:48;30.20;40.70
57857;DHT22;43683;48.650;9.290;2022-07-23T14:15:14;29.50;41.20
57857;DHT22;43683;48.650;9.290;2022-07-23T14:17:41;29.20;41.60
57857;DHT22;43683;48.650;9.290;2022-07-23T14:20:08;29.00;41.60
57857;DHT22;43683;48.650;9.290;2022-07-23T14:22:34;29.00;41.70
57857;DHT22;43683;48.650;9.290;2022-07-23T14:25:00;28.90;41.50
57857;DHT22;43683;48.650;9.290;2022-07-23T14:27:26;28.80;41.60
57857;DHT22;43683;48.650;9.290;2022-07-23T14:29:53;28.80;41.50
57857;DHT22;43683;48.650;9.290;2022-07-23T14:32:19;29.10;41.50
57857;DHT22;43683;48.650;9.290;2022-07-23T14:34:44;29.30;41.00
57857;DHT22;43683;48.650;9.290;2022-07-23T14:37:10;29.40;41.10
57857;DHT22;43683;48.650;9.290;2022-07-23T14:39:40;29.50;40.90
57857;DHT22;43683;48.650;9.290;2022-07-23T14:42:06;29.50;41.10
57857;DHT22;43683;48.650;9.290;2022-07-23T14:44:32;29.60;41.00
57857;DHT22;43683;48.650;9.290;2022-07-23T14:46:58;29.80;41.00
57857;DHT22;43683;48.650;9.290;2022-07-23T14:49:25;30.00;40.60
57857;DHT22;43683;48.650;9.290;2022-07-23T14:51:50;30.20;40.70
57857;DHT22;43683;48.650;9.290;2022-07-23T14:54:16;30.30;40.50
57857;DHT22;43683;48.650;9.290;2022-07-23T14:56:42;30.50;40.20
57857;DHT22;43683;48.650;9.290;2022-07-23T14:59:08;30.70;40.00
57857;DHT22;43683;48.650;9.290;2022-07-23T15:01:34;31.00;39.60
57857;DHT22;43683;48.650;9.290;2022-07-23T15:03:59;31.30;39.50
57857;DHT22;43683;48.650;9.290;2022-07-23T15:06:28;31.60;39.40
57857;DHT22;43683;48.650;9.290;2022-07-23T15:08:54;32.00;39.20
57857;DHT22;43683;48.650;9.290;2022-07-23T15:11:19;32.30;38.90
57857;DHT22;43683;48.650;9.290;2022-07-23T15:13:45;32.60;38.40
57857;DHT22;43683;48.650;9.290;2022-07-23T15:16:32;33.00;38.10
57857;DHT22;43683;48.650;9.290;2022-07-23T15:18:57;33.50;37.90
57857;DHT22;43683;48.650;9.290;2022-07-23T15:21:22;33.80;37.60
57857;DHT22;43683;48.650;9.290;2022-07-23T15:23:48;34.10;37.10
57857;DHT22;43683;48.650;9.290;2022-07-23T15:26:14;34.20;36.80
57857;DHT22;43683;48.650;9.290;2022-07-23T15:28:40;33.70;36.70
57857;DHT22;43683;48.650;9.290;2022-07-23T15:31:06;33.00;36.80
57857;DHT22;43683;48.650;9.290;2022-07-23T15:33:32;32.40;37.30
57857;DHT22;43683;48.650;9.290;2022-07-23T15:35:57;31.80;38.00
57857;DHT22;43683;48.650;9.290;2022-07-23T15:38:25;31.30;38.50
57857;DHT22;43683;48.650;9.290;2022-07-23T15:40:55;31.30;38.80
57857;DHT22;43683;48.650;9.290;2022-07-23T15:43:22;32.00;38.10
57857;DHT22;43683;48.650;9.290;2022-07-23T15:45:49;32.80;37.20
57857;DHT22;43683;48.650;9.290;2022-07-23T15:48:14;33.30;36.60
57857;DHT22;43683;48.650;9.290;2022-07-23T15:50:40;33.70;35.90
57857;DHT22;43683;48.650;9.290;2022-07-23T15:53:06;34.10;35.30
57857;DHT22;43683;48.650;9.290;2022-07-23T15:55:32;34.30;35.00
57857;DHT22;43683;48.650;9.290;2022-07-23T15:57:58;33.80;35.50
57857;DHT22;43683;48.650;9.290;2022-07-23T16:00:23;33.10;35.90
57857;DHT22;43683;48.650;9.290;2022-07-23T16:02:49;32.10;36.60
57857;DHT22;43683;48.650;9.290;2022-07-23T16:05:14;31.40;37.20
57857;DHT22;43683;48.650;9.290;2022-07-23T16:08:00;30.90;37.50
57857;DHT22;43683;48.650;9.290;2022-07-23T16:10:26;30.40;38.10
57857;DHT22;43683;48.650;9.290;2022-07-23T16:12:51;30.20;38.30
57857;DHT22;43683;48.650;9.290;2022-07-23T16:15:17;29.90;38.70